sensor_id;sensor_type;location;lat;lon;timestamp;P1;durP1;ratioP1;P2;durP2;ratioP2
57107;SDS011;42987;52.916;6.542;2023-05-01T00:00:54;7.93;;;5.68;;
57107;SDS011;42987;52.916;6.542;2023-05-01T00:03:20;8.55;;;6.10;;
57107;SDS011;42987;52.916;6.542;2023-05-01T00:05:46;9.52;;;5.90;;
57107;SDS011;42987;52.916;6.542;2023-05-01T00:08:12;7.78;;;5.90;;
57107;SDS011;42987;52.916;6.542;2023-05-01T00:10:38;7.70;;;6.15;;
57107;SDS011;42987;52.916;6.542;2023-05-01T00:13:04;9.68;;;6.85;;
57107;SDS011;42987;52.916;6.542;2023-05-01T00:15:30;10.30;;;6.20;;
57107;SDS011;42987;52.916;6.542;2023-05-01T00:17:57;8.90;;;5.90;;
57107;SDS011;42987;52.916;6.542;2023-05-01T00:20:26;7.13;;;5.40;;
57107;SDS011;42987;52.916;6.542;2023-05-01T00:22:52;9.20;;;6.22;;
57107;SDS011;42987;52.916;6.542;2023-05-01T00:25:19;10.77;;;7.03;;
57107;SDS011;42987;52.916;6.542;2023-05-01T00:27:45;8.68;;;6.43;;
57107;SDS011;42987;52.916;6.542;2023-05-01T00:30:12;8.23;;;6.50;;
57107;SDS011;42987;52.916;6.542;2023-05-01T00:32:38;8.15;;;6.40;;
57107;SDS011;42987;52.916;6.542;2023-05-01T00:35:04;9.15;;;6.50;;
57107;SDS011;42987;52.916;6.542;2023-05-01T00:37:29;8.43;;;6.57;;
57107;SDS011;42987;52.916;6.542;2023-05-01T00:39:56;9.70;;;6.80;;
57107;SDS011;42987;52.916;6.542;2023-05-01T00:42:22;9.35;;;6.45;;
57107;SDS011;42987;52.916;6.542;2023-05-01T00:44:48;10.18;;;6.63;;
57107;SDS011;42987;52.916;6.542;2023-05-01T00:47:13;10.35;;;7.30;;
57107;SDS011;42987;52.916;6.542;2023-05-01T00:49:42;9.68;;;7.00;;
57107;SDS011;42987;52.916;6.542;2023-05-01T00:54:36;9.07;;;6.90;;
57107;SDS011;42987;52.916;6.542;2023-05-01T00:57:02;9.27;;;7.05;;
57107;SDS011;42987;52.916;6.542;2023-05-01T00:59:28;10.40;;;6.78;;
57107;SDS011;42987;52.916;6.542;2023-05-01T01:01:54;10.15;;;7.65;;
57107;SDS011;42987;52.916;6.542;2023-05-01T01:04:20;10.45;;;7.30;;
57107;SDS011;42987;52.916;6.542;2023-05-01T01:09:41;9.82;;;7.13;;
57107;SDS011;42987;52.916;6.542;2023-05-01T01:12:51;9.55;;;6.57;;
57107;SDS011;42987;52.916;6.542;2023-05-01T01:15:30;9.70;;;6.72;;
57107;SDS011;42987;52.916;6.542;2023-05-01T01:23:32;11.13;;;6.03;;
57107;SDS011;42987;52.916;6.542;2023-05-01T01:31:17;9.13;;;6.43;;
57107;SDS011;42987;52.916;6.542;2023-05-01T01:34:03;10.60;;;7.25;;
57107;SDS011;42987;52.916;6.542;2023-05-01T01:36:40;10.70;;;7.70;;
57107;SDS011;42987;52.916;6.542;2023-05-01T01:39:57;8.90;;;6.63;;
57107;SDS011;42987;52.916;6.542;2023-05-01T01:42:05;9.00;;;7.20;;
57107;SDS011;42987;52.916;6.542;2023-05-01T01:44:47;11.32;;;7.63;;
57107;SDS011;42987;52.916;6.542;2023-05-01T01:47:16;9.10;;;7.30;;
57107;SDS011;42987;52.916;6.542;2023-05-01T01:49:45;9.55;;;7.18;;
57107;SDS011;42987;52.916;6.542;2023-05-01T01:52:14;11.77;;;8.40;;
57107;SDS011;42987;52.916;6.542;2023-05-01T01:54:44;8.02;;;7.13;;
57107;SDS011;42987;52.916;6.542;2023-05-01T01:57:23;11.10;;;7.55;;
57107;SDS011;42987;52.916;6.542;2023-05-01T01:59:49;11.07;;;7.43;;
57107;SDS011;42987;52.916;6.542;2023-05-01T02:02:18;10.48;;;7.28;;
57107;SDS011;42987;52.916;6.542;2023-05-01T02:04:46;9.60;;;6.88;;
57107;SDS011;42987;52.916;6.542;2023-05-01T02:07:13;9.73;;;7.45;;
57107;SDS011;42987;52.916;6.542;2023-05-01T02:09:41;10.68;;;7.90;;
57107;SDS011;42987;52.916;6.542;2023-05-01T02:12:08;9.15;;;6.80;;
57107;SDS011;42987;52.916;6.542;2023-05-01T02:14:36;8.52;;;7.15;;
57107;SDS011;42987;52.916;6.542;2023-05-01T02:17:03;9.35;;;7.75;;
57107;SDS011;42987;52.916;6.542;2023-05-01T02:19:29;10.57;;;7.85;;
57107;SDS011;42987;52.916;6.542;2023-05-01T02:21:57;9.45;;;7.60;;
57107;SDS011;42987;52.916;6.542;2023-05-01T02:24:25;9.60;;;7.50;;
57107;SDS011;42987;52.916;6.542;2023-05-01T02:26:56;11.13;;;7.88;;
57107;SDS011;42987;52.916;6.542;2023-05-01T02:29:27;10.70;;;8.02;;
57107;SDS011;42987;52.916;6.542;2023-05-01T02:31:53;9.57;;;7.60;;
57107;SDS011;42987;52.916;6.542;2023-05-01T02:34:19;9.82;;;7.63;;
57107;SDS011;42987;52.916;6.542;2023-05-01T02:36:46;9.07;;;7.82;;
57107;SDS011;42987;52.916;6.542;2023-05-01T02:39:12;9.90;;;7.88;;
57107;SDS011;42987;52.916;6.542;2023-05-01T02:41:37;10.55;;;7.80;;
57107;SDS011;42987;52.916;6.542;2023-05-01T02:44:04;8.85;;;7.55;;
57107;SDS011;42987;52.916;6.542;2023-05-01T02:46:34;13.82;;;8.70;;
57107;SDS011;42987;52.916;6.542;2023-05-01T02:49:01;11.68;;;9.00;;
57107;SDS011;42987;52.916;6.542;2023-05-01T02:51:28;12.25;;;8.32;;
57107;SDS011;42987;52.916;6.542;2023-05-01T02:53:56;9.27;;;7.63;;
57107;SDS011;42987;52.916;6.542;2023-05-01T02:56:26;12.32;;;9.23;;
57107;SDS011;42987;52.916;6.542;2023-05-01T02:58:53;9.77;;;7.80;;
57107;SDS011;42987;52.916;6.542;2023-05-01T03:01:22;11.30;;;8.30;;
57107;SDS011;42987;52.916;6.542;2023-05-01T03:03:51;11.93;;;8.05;;
57107;SDS011;42987;52.916;6.542;2023-05-01T03:06:17;10.60;;;7.95;;
57107;SDS011;42987;52.916;6.542;2023-05-01T03:08:43;11.43;;;8.30;;
57107;SDS011;42987;52.916;6.542;2023-05-01T03:11:09;9.70;;;8.35;;
57107;SDS011;42987;52.916;6.542;2023-05-01T03:13:35;10.80;;;8.48;;
57107;SDS011;42987;52.916;6.542;2023-05-01T03:16:01;11.32;;;7.38;;
57107;SDS011;42987;52.916;6.542;2023-05-01T03:18:28;9.60;;;7.50;;
57107;SDS011;42987;52.916;6.542;2023-05-01T03:20:54;10.80;;;8.23;;
57107;SDS011;42987;52.916;6.542;2023-05-01T03:23:21;8.65;;;7.75;;
57107;SDS011;42987;52.916;6.542;2023-05-01T03:25:48;11.52;;;8.60;;
57107;SDS011;42987;52.916;6.542;2023-05-01T03:28:14;9.75;;;7.45;;
57107;SDS011;42987;52.916;6.542;2023-05-01T03:30:40;10.45;;;7.72;;
57107;SDS011;42987;52.916;6.542;2023-05-01T03:33:06;13.80;;;8.68;;
57107;SDS011;42987;52.916;6.542;2023-05-01T03:35:32;9.13;;;7.72;;
57107;SDS011;42987;52.916;6.542;2023-05-01T03:37:58;10.05;;;7.70;;
57107;SDS011;42987;52.916;6.542;2023-05-01T03:40:24;10.98;;;7.65;;
57107;SDS011;42987;52.916;6.542;2023-05-01T03:42:50;11.60;;;7.72;;
57107;SDS011;42987;52.916;6.542;2023-05-01T03:45:16;8.65;;;7.68;;
57107;SDS011;42987;52.916;6.542;2023-05-01T03:47:41;12.55;;;8.85;;
57107;SDS011;42987;52.916;6.542;2023-05-01T03:50:07;11.88;;;8.85;;
57107;SDS011;42987;52.916;6.542;2023-05-01T03:52:33;10.80;;;8.85;;
57107;SDS011;42987;52.916;6.542;2023-05-01T03:54:59;10.43;;;8.20;;
57107;SDS011;42987;52.916;6.542;2023-05-01T03:57:25;10.73;;;8.70;;
57107;SDS011;42987;52.916;6.542;2023-05-01T03:59:51;11.05;;;9.10;;
57107;SDS011;42987;52.916;6.542;2023-05-01T04:02:21;10.98;;;9.38;;
57107;SDS011;42987;52.916;6.542;2023-05-01T04:04:47;9.93;;;8.75;;
57107;SDS011;42987;52.916;6.542;2023-05-01T04:07:12;13.48;;;9.57;;
57107;SDS011;42987;52.916;6.542;2023-05-01T04:09:38;14.98;;;9.13;;
57107;SDS011;42987;52.916;6.542;2023-05-01T04:12:04;10.85;;;8.52;;
57107;SDS011;42987;52.916;6.542;2023-05-01T04:14:30;11.48;;;9.13;;
57107;SDS011;42987;52.916;6.542;2023-05-01T04:16:56;11.52;;;8.88;;
57107;SDS011;42987;52.916;6.542;2023-05-01T04:19:22;10.32;;;9.10;;
57107;SDS011;42987;52.916;6.542;2023-05-01T04:21:48;10.48;;;8.73;;
57107;SDS011;42987;52.916;6.542;2023-05-01T04:24:14;11.43;;;9.60;;
57107;SDS011;42987;52.916;6.542;2023-05-01T04:26:40;11.60;;;9.10;;
57107;SDS011;42987;52.916;6.542;2023-05-01T04:29:07;11.45;;;9.50;;
57107;SDS011;42987;52.916;6.542;2023-05-01T04:31:33;11.95;;;9.73;;
57107;SDS011;42987;52.916;6.542;2023-05-01T04:33:59;14.27;;;10.35;;
57107;SDS011;42987;52.916;6.542;2023-05-01T04:36:25;13.95;;;10.60;;
57107;SDS011;42987;52.916;6.542;2023-05-01T04:38:51;12.90;;;10.50;;
57107;SDS011;42987;52.916;6.542;2023-05-01T04:41:17;16.90;;;11.32;;
57107;SDS011;42987;52.916;6.542;2023-05-01T04:43:43;13.68;;;10.77;;
57107;SDS011;42987;52.916;6.542;2023-05-01T04:46:09;13.25;;;10.40;;
57107;SDS011;42987;52.916;6.542;2023-05-01T04:48:35;13.52;;;10.40;;
57107;SDS011;42987;52.916;6.542;2023-05-01T04:51:01;14.13;;;10.75;;
57107;SDS011;42987;52.916;6.542;2023-05-01T04:53:28;13.63;;;10.75;;
57107;SDS011;42987;52.916;6.542;2023-05-01T04:55:54;13.05;;;10.65;;
57107;SDS011;42987;52.916;6.542;2023-05-01T04:58:19;14.93;;;11.00;;
57107;SDS011;42987;52.916;6.542;2023-05-01T05:00:45;14.38;;;11.43;;
57107;SDS011;42987;52.916;6.542;2023-05-01T05:03:11;12.95;;;11.05;;
57107;SDS011;42987;52.916;6.542;2023-05-01T05:05:37;12.45;;;10.48;;
57107;SDS011;42987;52.916;6.542;2023-05-01T05:08:03;14.05;;;11.52;;
57107;SDS011;42987;52.916;6.542;2023-05-01T05:10:29;15.90;;;11.23;;
57107;SDS011;42987;52.916;6.542;2023-05-01T05:12:55;14.18;;;10.95;;
57107;SDS011;42987;52.916;6.542;2023-05-01T05:15:20;13.73;;;11.07;;
57107;SDS011;42987;52.916;6.542;2023-05-01T05:17:46;14.82;;;11.10;;
57107;SDS011;42987;52.916;6.542;2023-05-01T05:20:12;13.88;;;11.18;;
57107;SDS011;42987;52.916;6.542;2023-05-01T05:22:39;14.27;;;11.13;;
57107;SDS011;42987;52.916;6.542;2023-05-01T05:25:08;13.40;;;11.40;;
57107;SDS011;42987;52.916;6.542;2023-05-01T05:27:34;12.95;;;10.63;;
57107;SDS011;42987;52.916;6.542;2023-05-01T05:30:05;15.40;;;11.13;;
57107;SDS011;42987;52.916;6.542;2023-05-01T05:32:32;13.00;;;10.10;;
57107;SDS011;42987;52.916;6.542;2023-05-01T05:34:58;12.30;;;10.23;;
57107;SDS011;42987;52.916;6.542;2023-05-01T05:37:24;12.25;;;10.68;;
57107;SDS011;42987;52.916;6.542;2023-05-01T05:39:50;13.13;;;9.75;;
57107;SDS011;42987;52.916;6.542;2023-05-01T05:42:16;14.45;;;10.85;;
57107;SDS011;42987;52.916;6.542;2023-05-01T05:44:42;13.07;;;9.50;;
57107;SDS011;42987;52.916;6.542;2023-05-01T05:47:08;12.68;;;9.75;;
57107;SDS011;42987;52.916;6.542;2023-05-01T05:49:33;12.38;;;9.68;;
57107;SDS011;42987;52.916;6.542;2023-05-01T05:51:59;15.00;;;9.52;;
57107;SDS011;42987;52.916;6.542;2023-05-01T05:54:25;13.80;;;9.63;;
57107;SDS011;42987;52.916;6.542;2023-05-01T05:56:51;11.95;;;9.00;;
57107;SDS011;42987;52.916;6.542;2023-05-01T05:59:17;13.80;;;8.82;;
57107;SDS011;42987;52.916;6.542;2023-05-01T06:01:42;12.70;;;10.35;;
57107;SDS011;42987;52.916;6.542;2023-05-01T06:04:08;12.90;;;9.57;;
57107;SDS011;42987;52.916;6.542;2023-05-01T06:06:35;11.75;;;9.10;;
57107;SDS011;42987;52.916;6.542;2023-05-01T06:09:01;17.35;;;9.48;;
57107;SDS011;42987;52.916;6.542;2023-05-01T06:11:27;10.65;;;8.68;;
57107;SDS011;42987;52.916;6.542;2023-05-01T06:13:53;10.52;;;8.80;;
57107;SDS011;42987;52.916;6.542;2023-05-01T06:16:19;10.85;;;8.80;;
57107;SDS011;42987;52.916;6.542;2023-05-01T06:18:45;10.82;;;8.32;;
57107;SDS011;42987;52.916;6.542;2023-05-01T06:21:11;12.02;;;8.30;;
57107;SDS011;42987;52.916;6.542;2023-05-01T06:23:37;10.57;;;8.40;;
57107;SDS011;42987;52.916;6.542;2023-05-01T06:26:02;12.40;;;8.52;;
57107;SDS011;42987;52.916;6.542;2023-05-01T06:28:28;12.02;;;8.55;;
57107;SDS011;42987;52.916;6.542;2023-05-01T06:30:54;12.95;;;8.30;;
57107;SDS011;42987;52.916;6.542;2023-05-01T06:33:20;10.77;;;7.93;;
57107;SDS011;42987;52.916;6.542;2023-05-01T06:35:46;11.45;;;7.75;;
57107;SDS011;42987;52.916;6.542;2023-05-01T06:38:12;10.48;;;7.72;;
57107;SDS011;42987;52.916;6.542;2023-05-01T06:40:38;9.88;;;6.95;;
57107;SDS011;42987;52.916;6.542;2023-05-01T06:43:04;13.18;;;7.30;;
57107;SDS011;42987;52.916;6.542;2023-05-01T06:45:30;10.88;;;6.90;;
57107;SDS011;42987;52.916;6.542;2023-05-01T06:47:56;10.45;;;7.50;;
57107;SDS011;42987;52.916;6.542;2023-05-01T06:50:22;10.60;;;6.60;;
57107;SDS011;42987;52.916;6.542;2023-05-01T06:52:47;10.02;;;6.45;;
57107;SDS011;42987;52.916;6.542;2023-05-01T06:55:13;10.30;;;5.80;;
57107;SDS011;42987;52.916;6.542;2023-05-01T06:57:39;8.38;;;5.93;;
57107;SDS011;42987;52.916;6.542;2023-05-01T07:00:05;10.40;;;6.30;;
57107;SDS011;42987;52.916;6.542;2023-05-01T07:02:31;9.63;;;6.20;;
57107;SDS011;42987;52.916;6.542;2023-05-01T07:04:58;9.15;;;5.65;;
57107;SDS011;42987;52.916;6.542;2023-05-01T07:07:24;9.35;;;5.78;;
57107;SDS011;42987;52.916;6.542;2023-05-01T07:09:49;9.23;;;5.97;;
57107;SDS011;42987;52.916;6.542;2023-05-01T07:12:15;9.68;;;5.50;;
57107;SDS011;42987;52.916;6.542;2023-05-01T07:14:41;8.32;;;5.53;;
57107;SDS011;42987;52.916;6.542;2023-05-01T07:17:07;10.45;;;5.80;;
57107;SDS011;42987;52.916;6.542;2023-05-01T07:19:33;10.10;;;5.32;;
57107;SDS011;42987;52.916;6.542;2023-05-01T07:21:59;8.68;;;5.72;;
57107;SDS011;42987;52.916;6.542;2023-05-01T07:24:25;9.48;;;6.20;;
57107;SDS011;42987;52.916;6.542;2023-05-01T07:26:51;10.20;;;6.40;;
57107;SDS011;42987;52.916;6.542;2023-05-01T07:29:17;10.85;;;6.20;;
57107;SDS011;42987;52.916;6.542;2023-05-01T07:31:43;9.98;;;6.28;;
57107;SDS011;42987;52.916;6.542;2023-05-01T07:34:12;10.45;;;6.57;;
57107;SDS011;42987;52.916;6.542;2023-05-01T07:36:38;11.95;;;6.30;;
57107;SDS011;42987;52.916;6.542;2023-05-01T07:39:04;10.25;;;6.22;;
57107;SDS011;42987;52.916;6.542;2023-05-01T07:41:30;9.30;;;6.05;;
57107;SDS011;42987;52.916;6.542;2023-05-01T07:43:59;8.40;;;5.95;;
57107;SDS011;42987;52.916;6.542;2023-05-01T07:46:25;9.73;;;6.22;;
57107;SDS011;42987;52.916;6.542;2023-05-01T07:48:51;11.05;;;6.72;;
57107;SDS011;42987;52.916;6.542;2023-05-01T07:51:16;10.68;;;6.35;;
57107;SDS011;42987;52.916;6.542;2023-05-01T07:53:43;8.75;;;5.70;;
57107;SDS011;42987;52.916;6.542;2023-05-01T07:56:10;11.90;;;6.10;;
57107;SDS011;42987;52.916;6.542;2023-05-01T07:58:37;10.93;;;6.60;;
57107;SDS011;42987;52.916;6.542;2023-05-01T08:01:05;10.75;;;7.20;;
57107;SDS011;42987;52.916;6.542;2023-05-01T08:03:31;8.32;;;5.93;;
57107;SDS011;42987;52.916;6.542;2023-05-01T08:05:57;9.88;;;6.47;;
57107;SDS011;42987;52.916;6.542;2023-05-01T08:08:32;9.27;;;5.70;;
57107;SDS011;42987;52.916;6.542;2023-05-01T08:10:58;8.85;;;6.25;;
57107;SDS011;42987;52.916;6.542;2023-05-01T08:13:24;8.95;;;5.50;;
57107;SDS011;42987;52.916;6.542;2023-05-01T08:15:50;9.85;;;5.50;;
57107;SDS011;42987;52.916;6.542;2023-05-01T08:18:16;8.77;;;5.80;;
57107;SDS011;42987;52.916;6.542;2023-05-01T08:20:45;8.57;;;5.90;;
57107;SDS011;42987;52.916;6.542;2023-05-01T08:23:12;10.45;;;6.10;;
57107;SDS011;42987;52.916;6.542;2023-05-01T08:25:39;12.50;;;5.32;;
57107;SDS011;42987;52.916;6.542;2023-05-01T08:28:05;9.02;;;5.55;;
57107;SDS011;42987;52.916;6.542;2023-05-01T08:30:31;10.45;;;6.07;;
57107;SDS011;42987;52.916;6.542;2023-05-01T08:32:56;8.27;;;5.90;;
57107;SDS011;42987;52.916;6.542;2023-05-01T08:35:22;9.73;;;5.72;;
57107;SDS011;42987;52.916;6.542;2023-05-01T08:37:48;10.77;;;5.40;;
57107;SDS011;42987;52.916;6.542;2023-05-01T08:40:14;10.13;;;5.43;;
57107;SDS011;42987;52.916;6.542;2023-05-01T08:42:40;11.60;;;5.60;;
57107;SDS011;42987;52.916;6.542;2023-05-01T08:45:06;8.30;;;5.32;;
57107;SDS011;42987;52.916;6.542;2023-05-01T08:47:36;8.65;;;5.38;;
57107;SDS011;42987;52.916;6.542;2023-05-01T08:50:08;6.93;;;4.97;;
57107;SDS011;42987;52.916;6.542;2023-05-01T08:52:39;10.10;;;4.65;;
57107;SDS011;42987;52.916;6.542;2023-05-01T08:55:12;8.95;;;4.60;;
57107;SDS011;42987;52.916;6.542;2023-05-01T09:00:18;8.68;;;5.22;;
57107;SDS011;42987;52.916;6.542;2023-05-01T09:02:48;9.15;;;4.72;;
57107;SDS011;42987;52.916;6.542;2023-05-01T09:05:15;8.57;;;4.90;;
57107;SDS011;42987;52.916;6.542;2023-05-01T09:07:42;9.23;;;5.22;;
57107;SDS011;42987;52.916;6.542;2023-05-01T09:10:10;9.02;;;5.22;;
57107;SDS011;42987;52.916;6.542;2023-05-01T09:12:38;8.85;;;4.95;;
57107;SDS011;42987;52.916;6.542;2023-05-01T09:15:05;7.40;;;4.85;;
57107;SDS011;42987;52.916;6.542;2023-05-01T09:17:32;6.85;;;3.53;;
57107;SDS011;42987;52.916;6.542;2023-05-01T09:20:02;7.00;;;4.50;;
57107;SDS011;42987;52.916;6.542;2023-05-01T09:22:32;8.02;;;4.07;;
57107;SDS011;42987;52.916;6.542;2023-05-01T09:24:58;5.55;;;3.80;;
57107;SDS011;42987;52.916;6.542;2023-05-01T09:27:28;7.40;;;3.95;;
57107;SDS011;42987;52.916;6.542;2023-05-01T09:29:58;5.82;;;3.40;;
57107;SDS011;42987;52.916;6.542;2023-05-01T09:32:26;6.05;;;3.70;;
57107;SDS011;42987;52.916;6.542;2023-05-01T09:34:55;10.45;;;3.05;;
57107;SDS011;42987;52.916;6.542;2023-05-01T09:37:34;6.30;;;2.97;;
57107;SDS011;42987;52.916;6.542;2023-05-01T09:40:04;5.70;;;2.60;;
57107;SDS011;42987;52.916;6.542;2023-05-01T09:42:38;6.38;;;2.63;;
57107;SDS011;42987;52.916;6.542;2023-05-01T09:45:11;6.05;;;2.60;;
57107;SDS011;42987;52.916;6.542;2023-05-01T09:47:41;5.72;;;2.63;;
57107;SDS011;42987;52.916;6.542;2023-05-01T09:50:08;5.10;;;2.20;;
57107;SDS011;42987;52.916;6.542;2023-05-01T09:52:34;5.30;;;2.55;;
57107;SDS011;42987;52.916;6.542;2023-05-01T09:57:38;5.80;;;3.10;;
57107;SDS011;42987;52.916;6.542;2023-05-01T10:00:04;6.22;;;2.10;;
57107;SDS011;42987;52.916;6.542;2023-05-01T10:02:32;5.15;;;2.30;;
57107;SDS011;42987;52.916;6.542;2023-05-01T10:04:58;6.93;;;2.78;;
57107;SDS011;42987;52.916;6.542;2023-05-01T10:07:24;7.03;;;3.50;;
57107;SDS011;42987;52.916;6.542;2023-05-01T10:09:51;5.20;;;2.97;;
57107;SDS011;42987;52.916;6.542;2023-05-01T10:12:28;6.60;;;2.75;;
57107;SDS011;42987;52.916;6.542;2023-05-01T10:14:55;7.18;;;3.08;;
57107;SDS011;42987;52.916;6.542;2023-05-01T10:17:22;6.45;;;2.80;;
57107;SDS011;42987;52.916;6.542;2023-05-01T10:19:48;5.95;;;2.70;;
57107;SDS011;42987;52.916;6.542;2023-05-01T10:22:15;6.95;;;2.33;;
57107;SDS011;42987;52.916;6.542;2023-05-01T10:24:44;5.80;;;2.78;;
57107;SDS011;42987;52.916;6.542;2023-05-01T10:27:13;4.15;;;1.55;;
57107;SDS011;42987;52.916;6.542;2023-05-01T10:29:41;3.08;;;1.42;;
57107;SDS011;42987;52.916;6.542;2023-05-01T10:32:08;2.40;;;0.70;;
57107;SDS011;42987;52.916;6.542;2023-05-01T10:34:36;3.85;;;1.17;;
57107;SDS011;42987;52.916;6.542;2023-05-01T10:37:05;5.72;;;2.13;;
57107;SDS011;42987;52.916;6.542;2023-05-01T10:39:37;4.97;;;1.92;;
57107;SDS011;42987;52.916;6.542;2023-05-01T10:42:03;4.05;;;2.00;;
57107;SDS011;42987;52.916;6.542;2023-05-01T10:44:31;4.70;;;2.10;;
57107;SDS011;42987;52.916;6.542;2023-05-01T10:46:58;4.07;;;1.90;;
57107;SDS011;42987;52.916;6.542;2023-05-01T10:49:24;6.97;;;2.22;;
57107;SDS011;42987;52.916;6.542;2023-05-01T10:52:28;5.97;;;2.58;;
57107;SDS011;42987;52.916;6.542;2023-05-01T10:57:57;3.75;;;2.25;;
57107;SDS011;42987;52.916;6.542;2023-05-01T11:00:24;7.07;;;2.88;;
57107;SDS011;42987;52.916;6.542;2023-05-01T11:02:49;4.05;;;2.53;;
57107;SDS011;42987;52.916;6.542;2023-05-01T11:05:15;6.20;;;3.10;;
57107;SDS011;42987;52.916;6.542;2023-05-01T11:07:41;5.78;;;3.30;;
57107;SDS011;42987;52.916;6.542;2023-05-01T11:10:25;5.75;;;3.10;;
57107;SDS011;42987;52.916;6.542;2023-05-01T11:12:51;5.97;;;3.15;;
57107;SDS011;42987;52.916;6.542;2023-05-01T11:15:24;5.57;;;2.78;;
57107;SDS011;42987;52.916;6.542;2023-05-01T11:17:54;6.88;;;3.40;;
57107;SDS011;42987;52.916;6.542;2023-05-01T11:22:53;6.22;;;2.50;;
57107;SDS011;42987;52.916;6.542;2023-05-01T11:25:27;6.45;;;1.98;;
57107;SDS011;42987;52.916;6.542;2023-05-01T11:28:04;4.65;;;2.80;;
57107;SDS011;42987;52.916;6.542;2023-05-01T11:30:37;5.65;;;2.13;;
57107;SDS011;42987;52.916;6.542;2023-05-01T11:33:03;4.15;;;1.67;;
57107;SDS011;42987;52.916;6.542;2023-05-01T11:35:31;4.07;;;1.60;;
57107;SDS011;42987;52.916;6.542;2023-05-01T11:37:57;2.83;;;1.40;;
57107;SDS011;42987;52.916;6.542;2023-05-01T11:40:30;4.72;;;1.70;;
57107;SDS011;42987;52.916;6.542;2023-05-01T11:43:04;2.85;;;1.40;;
57107;SDS011;42987;52.916;6.542;2023-05-01T11:45:31;3.25;;;1.60;;
57107;SDS011;42987;52.916;6.542;2023-05-01T11:47:58;3.38;;;1.42;;
57107;SDS011;42987;52.916;6.542;2023-05-01T11:50:31;5.00;;;1.42;;
57107;SDS011;42987;52.916;6.542;2023-05-01T11:52:57;2.97;;;1.40;;
57107;SDS011;42987;52.916;6.542;2023-05-01T11:55:30;3.58;;;1.25;;
57107;SDS011;42987;52.916;6.542;2023-05-01T11:57:57;2.88;;;1.13;;
57107;SDS011;42987;52.916;6.542;2023-05-01T12:00:36;3.08;;;1.00;;
57107;SDS011;42987;52.916;6.542;2023-05-01T12:03:10;4.72;;;1.35;;
57107;SDS011;42987;52.916;6.542;2023-05-01T12:05:43;3.38;;;1.25;;
57107;SDS011;42987;52.916;6.542;2023-05-01T12:08:16;2.65;;;1.00;;
57107;SDS011;42987;52.916;6.542;2023-05-01T12:11:05;3.47;;;1.10;;
57107;SDS011;42987;52.916;6.542;2023-05-01T12:13:37;2.47;;;1.05;;
57107;SDS011;42987;52.916;6.542;2023-05-01T12:16:04;2.42;;;1.10;;
57107;SDS011;42987;52.916;6.542;2023-05-01T12:18:30;4.47;;;1.80;;
57107;SDS011;42987;52.916;6.542;2023-05-01T12:20:56;4.68;;;1.50;;
57107;SDS011;42987;52.916;6.542;2023-05-01T12:23:32;3.55;;;1.60;;
57107;SDS011;42987;52.916;6.542;2023-05-01T12:26:01;3.00;;;1.50;;
57107;SDS011;42987;52.916;6.542;2023-05-01T12:28:51;3.60;;;1.60;;
57107;SDS011;42987;52.916;6.542;2023-05-01T12:31:27;4.57;;;1.90;;
57107;SDS011;42987;52.916;6.542;2023-05-01T12:33:55;3.05;;;1.75;;
57107;SDS011;42987;52.916;6.542;2023-05-01T12:36:22;4.22;;;1.65;;
57107;SDS011;42987;52.916;6.542;2023-05-01T12:41:40;3.95;;;1.30;;
57107;SDS011;42987;52.916;6.542;2023-05-01T12:44:25;5.03;;;2.27;;
57107;SDS011;42987;52.916;6.542;2023-05-01T12:46:55;4.30;;;1.77;;
57107;SDS011;42987;52.916;6.542;2023-05-01T12:49:24;3.90;;;1.73;;
57107;SDS011;42987;52.916;6.542;2023-05-01T12:51:52;3.55;;;1.70;;
57107;SDS011;42987;52.916;6.542;2023-05-01T12:54:35;4.45;;;2.13;;
57107;SDS011;42987;52.916;6.542;2023-05-01T12:57:12;4.47;;;2.00;;
57107;SDS011;42987;52.916;6.542;2023-05-01T12:59:40;3.92;;;1.90;;
57107;SDS011;42987;52.916;6.542;2023-05-01T13:02:11;3.17;;;1.98;;
57107;SDS011;42987;52.916;6.542;2023-05-01T13:04:45;5.10;;;2.50;;
57107;SDS011;42987;52.916;6.542;2023-05-01T13:07:14;4.95;;;1.73;;
57107;SDS011;42987;52.916;6.542;2023-05-01T13:09:51;4.97;;;1.90;;
57107;SDS011;42987;52.916;6.542;2023-05-01T13:12:18;3.95;;;1.60;;
57107;SDS011;42987;52.916;6.542;2023-05-01T13:14:45;2.92;;;1.35;;
57107;SDS011;42987;52.916;6.542;2023-05-01T13:17:11;2.72;;;1.17;;
57107;SDS011;42987;52.916;6.542;2023-05-01T13:19:39;5.75;;;2.00;;
57107;SDS011;42987;52.916;6.542;2023-05-01T13:22:05;3.00;;;1.38;;
57107;SDS011;42987;52.916;6.542;2023-05-01T13:24:35;3.28;;;1.38;;
57107;SDS011;42987;52.916;6.542;2023-05-01T13:27:05;2.28;;;1.25;;
57107;SDS011;42987;52.916;6.542;2023-05-01T13:29:33;2.35;;;1.55;;
57107;SDS011;42987;52.916;6.542;2023-05-01T13:32:02;3.10;;;1.40;;
57107;SDS011;42987;52.916;6.542;2023-05-01T13:34:30;2.88;;;1.15;;
57107;SDS011;42987;52.916;6.542;2023-05-01T13:36:57;3.70;;;1.65;;
57107;SDS011;42987;52.916;6.542;2023-05-01T13:39:28;3.33;;;1.70;;
57107;SDS011;42987;52.916;6.542;2023-05-01T13:41:54;6.60;;;1.90;;
57107;SDS011;42987;52.916;6.542;2023-05-01T13:44:20;4.28;;;1.33;;
57107;SDS011;42987;52.916;6.542;2023-05-01T13:46:46;4.00;;;1.55;;
57107;SDS011;42987;52.916;6.542;2023-05-01T13:49:13;3.80;;;1.83;;
57107;SDS011;42987;52.916;6.542;2023-05-01T13:51:43;3.92;;;1.65;;
57107;SDS011;42987;52.916;6.542;2023-05-01T13:54:10;3.47;;;1.73;;
57107;SDS011;42987;52.916;6.542;2023-05-01T13:56:38;4.32;;;1.90;;
57107;SDS011;42987;52.916;6.542;2023-05-01T13:59:05;4.88;;;2.03;;
57107;SDS011;42987;52.916;6.542;2023-05-01T14:01:39;4.55;;;2.30;;
57107;SDS011;42987;52.916;6.542;2023-05-01T14:04:14;5.15;;;2.15;;
57107;SDS011;42987;52.916;6.542;2023-05-01T14:06:42;5.65;;;2.50;;
57107;SDS011;42987;52.916;6.542;2023-05-01T14:09:09;4.75;;;2.30;;
57107;SDS011;42987;52.916;6.542;2023-05-01T14:11:45;4.35;;;2.13;;
57107;SDS011;42987;52.916;6.542;2023-05-01T14:14:16;4.63;;;2.55;;
57107;SDS011;42987;52.916;6.542;2023-05-01T14:16:46;5.20;;;2.70;;
57107;SDS011;42987;52.916;6.542;2023-05-01T14:19:16;3.92;;;2.45;;
57107;SDS011;42987;52.916;6.542;2023-05-01T14:21:42;4.65;;;2.10;;
57107;SDS011;42987;52.916;6.542;2023-05-01T14:24:08;5.90;;;3.50;;
57107;SDS011;42987;52.916;6.542;2023-05-01T14:26:35;5.75;;;4.00;;
57107;SDS011;42987;52.916;6.542;2023-05-01T14:29:15;7.18;;;4.15;;
57107;SDS011;42987;52.916;6.542;2023-05-01T14:31:47;7.32;;;4.05;;
57107;SDS011;42987;52.916;6.542;2023-05-01T14:34:12;7.60;;;4.35;;
57107;SDS011;42987;52.916;6.542;2023-05-01T14:36:41;6.68;;;4.32;;
57107;SDS011;42987;52.916;6.542;2023-05-01T14:39:07;6.68;;;4.20;;
57107;SDS011;42987;52.916;6.542;2023-05-01T14:41:38;7.68;;;4.32;;
57107;SDS011;42987;52.916;6.542;2023-05-01T14:44:09;8.10;;;4.38;;
57107;SDS011;42987;52.916;6.542;2023-05-01T14:46:38;7.10;;;4.35;;
57107;SDS011;42987;52.916;6.542;2023-05-01T14:49:20;8.48;;;4.85;;
57107;SDS011;42987;52.916;6.542;2023-05-01T14:51:51;10.52;;;4.30;;
57107;SDS011;42987;52.916;6.542;2023-05-01T14:54:19;6.93;;;3.90;;
57107;SDS011;42987;52.916;6.542;2023-05-01T14:56:46;9.50;;;4.47;;
57107;SDS011;42987;52.916;6.542;2023-05-01T14:59:12;7.38;;;4.20;;
57107;SDS011;42987;52.916;6.542;2023-05-01T15:01:38;9.07;;;4.15;;
57107;SDS011;42987;52.916;6.542;2023-05-01T15:04:04;7.30;;;4.18;;
57107;SDS011;42987;52.916;6.542;2023-05-01T15:06:35;6.60;;;4.45;;
57107;SDS011;42987;52.916;6.542;2023-05-01T15:09:01;7.53;;;4.90;;
57107;SDS011;42987;52.916;6.542;2023-05-01T15:11:28;7.78;;;4.30;;
57107;SDS011;42987;52.916;6.542;2023-05-01T15:13:54;7.28;;;4.50;;
57107;SDS011;42987;52.916;6.542;2023-05-01T15:16:20;7.68;;;4.70;;